createdAt,value
2022-09-03T00:02:23.580Z,61.70
2022-09-03T00:05:40.464Z,61.60
2022-09-03T00:09:00.735Z,61.60
2022-09-03T00:12:13.231Z,61.70
2022-09-03T00:15:23.228Z,61.50
2022-09-03T00:18:35.233Z,61.60
2022-09-03T00:21:50.646Z,61.60
2022-09-03T00:25:03.259Z,61.60
2022-09-03T00:28:19.051Z,61.60
2022-09-03T00:31:33.311Z,61.60
2022-09-03T00:34:45.515Z,61.50
2022-09-03T00:37:55.536Z,61.60
2022-09-03T00:41:12.515Z,61.70
2022-09-03T00:44:48.639Z,61.60
2022-09-03T00:48:08.159Z,61.70
2022-09-03T00:51:28.827Z,61.70
2022-09-03T00:54:45.806Z,61.70
2022-09-03T00:58:10.066Z,61.70
2022-09-03T01:01:24.533Z,61.80
2022-09-03T01:04:45.431Z,61.70
2022-09-03T01:08:02.207Z,61.70
2022-09-03T01:11:23.289Z,61.70
2022-09-03T01:14:45.437Z,61.60
2022-09-03T01:18:07.418Z,61.80
2022-09-03T01:21:48.279Z,61.50
2022-09-03T01:25:18.531Z,61.60
2022-09-03T01:28:45.476Z,61.60
2022-09-03T01:32:04.496Z,61.50
2022-09-03T01:35:21.120Z,61.50
2022-09-03T01:38:36.765Z,61.60
2022-09-03T01:42:12.536Z,61.40
2022-09-03T01:45:51.160Z,61.50
2022-09-03T01:49:11.460Z,61.50
2022-09-03T01:52:26.488Z,61.50
2022-09-03T01:55:36.731Z,61.60
2022-09-03T01:58:49.530Z,61.60
2022-09-03T02:02:06.596Z,61.50
2022-09-03T02:05:16.509Z,61.60
2022-09-03T02:08:23.911Z,61.60
2022-09-03T02:11:33.572Z,61.70
2022-09-03T02:14:44.351Z,61.80
2022-09-03T02:18:16.411Z,61.70
2022-09-03T02:21:31.145Z,61.80
2022-09-03T02:24:41.487Z,61.90
2022-09-03T02:27:53.251Z,61.70
2022-09-03T02:31:03.806Z,61.60
2022-09-03T02:34:18.315Z,61.60
2022-09-03T02:37:29.537Z,61.50
2022-09-03T02:40:41.585Z,61.50
2022-09-03T02:43:55.235Z,61.50
2022-09-03T02:47:09.807Z,61.50
2022-09-03T02:50:24.853Z,61.40
2022-09-03T02:53:33.914Z,61.40
2022-09-03T02:56:51.419Z,61.50
2022-09-03T03:00:02.152Z,61.50
2022-09-03T03:03:16.192Z,61.50
2022-09-03T03:06:30.147Z,61.50
2022-09-03T03:09:40.529Z,61.50
2022-09-03T03:12:50.870Z,61.50
2022-09-03T03:16:02.632Z,61.40
2022-09-03T03:19:12.378Z,61.40
2022-09-03T03:22:23.586Z,61.40
2022-09-03T03:25:33.860Z,61.50
2022-09-03T03:28:44.218Z,61.50
2022-09-03T03:31:55.840Z,61.60
2022-09-03T03:35:06.163Z,61.60
2022-09-03T03:38:26.375Z,61.80
2022-09-03T03:41:37.133Z,61.60
2022-09-03T03:44:47.636Z,61.60
2022-09-03T03:47:55.349Z,61.60
2022-09-03T03:51:09.949Z,61.60
2022-09-03T03:54:23.619Z,61.60
2022-09-03T03:57:37.411Z,61.70
2022-09-03T04:00:46.839Z,61.60
2022-09-03T04:03:57.750Z,61.50
2022-09-03T04:07:06.286Z,61.50
2022-09-03T04:10:20.777Z,61.50
2022-09-03T04:13:29.237Z,61.70
2022-09-03T04:16:39.506Z,61.50
2022-09-03T04:19:49.499Z,61.50
2022-09-03T04:23:00.638Z,61.60
2022-09-03T04:26:13.629Z,61.50
2022-09-03T04:29:23.738Z,61.50
2022-09-03T04:32:48.499Z,61.50
2022-09-03T04:36:11.058Z,61.50
2022-09-03T04:39:20.528Z,61.50
2022-09-03T04:42:35.819Z,61.50
2022-09-03T04:45:44.215Z,61.50
2022-09-03T04:48:58.276Z,61.50
2022-09-03T04:52:07.544Z,61.50
2022-09-03T04:55:18.164Z,61.50
2022-09-03T04:58:30.765Z,61.50
2022-09-03T05:01:43.287Z,61.50
2022-09-03T05:04:55.529Z,61.80
2022-09-03T05:08:06.587Z,61.70
2022-09-03T05:11:15.847Z,61.70
2022-09-03T05:14:30.390Z,61.70
2022-09-03T05:17:39.622Z,61.80
2022-09-03T05:20:52.526Z,61.70
2022-09-03T05:24:01.817Z,61.70
2022-09-03T05:27:12.602Z,61.90
2022-09-03T05:30:27.996Z,61.70
2022-09-03T05:33:38.270Z,61.60
2022-09-03T05:36:43.758Z,61.50
2022-09-03T05:39:51.506Z,61.50
2022-09-03T05:43:06.528Z,61.50
2022-09-03T05:46:21.760Z,61.50
2022-09-03T05:49:30.629Z,61.50
2022-09-03T05:52:39.001Z,61.50
2022-09-03T05:56:02.379Z,61.50
2022-09-03T05:59:16.169Z,61.50
2022-09-03T06:02:25.034Z,61.50
2022-09-03T06:05:32.572Z,61.50
2022-09-03T06:08:40.372Z,61.50
2022-09-03T06:11:58.805Z,61.50
2022-09-03T06:15:12.129Z,61.50
2022-09-03T06:18:30.290Z,61.60
2022-09-03T06:21:38.058Z,61.60
2022-09-03T06:24:47.981Z,61.60
2022-09-03T06:27:56.247Z,61.80
2022-09-03T06:31:05.774Z,61.80
2022-09-03T06:34:20.376Z,61.70
2022-09-03T06:37:35.066Z,61.80
2022-09-03T06:40:42.967Z,61.70
2022-09-03T06:43:54.225Z,61.70
2022-09-03T06:47:04.159Z,61.70
2022-09-03T06:50:23.584Z,61.60
2022-09-03T06:53:36.142Z,61.60
2022-09-03T06:56:48.337Z,61.70
2022-09-03T06:59:58.598Z,62.40
2022-09-03T07:03:12.303Z,62.70
2022-09-03T07:06:24.336Z,63.60
2022-09-03T07:09:40.061Z,63.60
2022-09-03T07:12:49.228Z,64.70
2022-09-03T07:16:03.471Z,66.00
2022-09-03T07:19:11.029Z,66.80
2022-09-03T07:22:31.598Z,67.20
2022-09-03T07:25:40.002Z,67.40
2022-09-03T07:28:50.920Z,67.10
2022-09-03T07:32:00.071Z,66.70
2022-09-03T07:35:11.296Z,66.10
2022-09-03T07:38:26.110Z,66.00
2022-09-03T07:41:38.326Z,67.30
2022-09-03T07:44:49.575Z,68.40
2022-09-03T07:48:00.277Z,69.10
2022-09-03T07:51:08.818Z,68.40
2022-09-03T07:54:23.089Z,68.20
2022-09-03T07:57:33.252Z,68.20
2022-09-03T08:00:45.743Z,68.50
2022-09-03T08:03:59.152Z,68.40
2022-09-03T08:07:07.057Z,68.60
2022-09-03T08:10:28.068Z,68.50
2022-09-03T08:13:37.282Z,68.30
2022-09-03T08:16:48.392Z,67.90
2022-09-03T08:20:01.946Z,67.90
2022-09-03T08:23:07.905Z,67.50
2022-09-03T08:26:22.257Z,67.50
2022-09-03T08:29:36.480Z,67.60
2022-09-03T08:32:53.445Z,67.40
2022-09-03T08:36:05.977Z,67.20
2022-09-03T08:39:14.932Z,67.20
2022-09-03T08:42:39.063Z,67.00
2022-09-03T08:45:53.981Z,66.80
2022-09-03T08:49:09.842Z,66.50
2022-09-03T08:52:34.488Z,66.50
2022-09-03T08:55:47.567Z,66.40
2022-09-03T08:59:06.907Z,66.20
2022-09-03T09:02:32.249Z,65.90
2022-09-03T09:05:52.394Z,65.80
2022-09-03T09:09:18.133Z,65.70
2022-09-03T09:12:42.822Z,65.60
2022-09-03T09:16:11.279Z,65.50
2022-09-03T09:19:32.200Z,65.30
2022-09-03T09:22:47.901Z,65.10
2022-09-03T09:25:56.735Z,65.00
2022-09-03T09:29:13.624Z,64.90
2022-09-03T09:32:25.633Z,64.80
2022-09-03T09:35:46.646Z,64.70
2022-09-03T09:39:08.226Z,64.60
2022-09-03T09:42:16.138Z,64.60
2022-09-03T09:45:21.703Z,64.50
2022-09-03T09:48:57.649Z,64.40
2022-09-03T09:52:16.785Z,64.30
2022-09-03T09:55:35.653Z,64.20
2022-09-03T09:58:49.857Z,64.00
2022-09-03T10:02:22.374Z,64.00
2022-09-03T10:05:41.756Z,63.90
2022-09-03T10:08:54.966Z,63.90
2022-09-03T10:12:32.264Z,63.80
2022-09-03T10:15:57.960Z,63.70
2022-09-03T10:19:13.705Z,63.60
2022-09-03T10:22:31.641Z,63.60
2022-09-03T10:25:56.670Z,63.60
2022-09-03T10:29:10.443Z,63.50
2022-09-03T10:32:47.797Z,63.50
2022-09-03T10:36:25.543Z,63.40
2022-09-03T10:39:56.075Z,63.40
2022-09-03T10:43:33.045Z,63.40
2022-09-03T10:47:18.277Z,63.30
2022-09-03T10:50:36.770Z,63.30
2022-09-03T10:54:07.349Z,63.30
2022-09-03T10:57:36.087Z,63.20
2022-09-03T11:01:02.995Z,63.20
2022-09-03T11:04:28.770Z,63.10
2022-09-03T11:07:47.015Z,63.10
2022-09-03T11:11:14.577Z,63.00
2022-09-03T11:14:42.269Z,63.00
2022-09-03T11:17:59.276Z,62.90
2022-09-03T11:21:12.074Z,62.90
2022-09-03T11:24:23.454Z,62.80
2022-09-03T11:27:56.992Z,62.80
2022-09-03T11:31:20.512Z,62.70
2022-09-03T11:34:33.126Z,62.70
2022-09-03T11:37:56.596Z,62.60
2022-09-03T11:41:06.680Z,62.70
2022-09-03T11:44:24.140Z,62.60
2022-09-03T11:47:43.206Z,62.60
2022-09-03T11:50:59.877Z,62.60
2022-09-03T11:54:07.998Z,62.60
2022-09-03T11:57:19.914Z,62.60
2022-09-03T12:00:25.864Z,62.60
2022-09-03T12:03:47.266Z,62.60
2022-09-03T12:07:20.759Z,62.60
2022-09-03T12:10:39.760Z,62.50
2022-09-03T12:13:54.587Z,62.60
2022-09-03T12:17:18.607Z,62.60
2022-09-03T12:20:31.910Z,62.60
2022-09-03T12:23:45.474Z,62.50
2022-09-03T12:26:50.965Z,62.50
2022-09-03T12:30:01.613Z,62.50
2022-09-03T12:33:11.259Z,62.50
2022-09-03T12:36:22.313Z,62.40
2022-09-03T12:43:37.118Z,62.40
2022-09-03T12:46:33.268Z,62.40
2022-09-03T12:49:43.486Z,62.40
2022-09-03T12:52:54.568Z,62.40
2022-09-03T12:56:06.805Z,62.30
2022-09-03T12:59:17.533Z,62.30
2022-09-03T13:02:29.467Z,62.30
2022-09-03T13:05:37.294Z,62.30
2022-09-03T13:08:51.569Z,62.30
2022-09-03T13:11:59.657Z,62.40
2022-09-03T13:15:12.601Z,62.40
2022-09-03T13:18:28.882Z,62.40
2022-09-03T13:21:50.694Z,62.40
2022-09-03T13:25:16.032Z,62.40
2022-09-03T13:28:41.189Z,62.40
2022-09-03T13:31:53.844Z,62.40
2022-09-03T13:35:09.642Z,62.40
2022-09-03T13:38:37.108Z,62.40
2022-09-03T13:41:53.844Z,62.40
2022-09-03T13:45:07.577Z,62.40
2022-09-03T13:48:36.872Z,62.30
2022-09-03T13:51:50.660Z,62.30
2022-09-03T13:55:04.262Z,62.30
2022-09-03T13:58:23.095Z,62.30
2022-09-03T14:01:43.237Z,62.30
2022-09-03T14:05:03.551Z,62.20
2022-09-03T14:08:22.681Z,62.20
2022-09-03T14:11:34.131Z,62.10
2022-09-03T14:14:54.034Z,62.10
2022-09-03T14:18:06.096Z,62.10
2022-09-03T14:21:20.297Z,62.10
2022-09-03T14:24:30.283Z,62.10
2022-09-03T14:27:38.052Z,62.10
2022-09-03T14:30:55.992Z,62.00
2022-09-03T14:34:10.670Z,62.00
2022-09-03T14:37:28.887Z,62.00
2022-09-03T14:40:45.738Z,62.00
2022-09-03T14:44:10.603Z,62.10
2022-09-03T14:47:34.310Z,62.10
2022-09-03T14:50:59.750Z,62.10
2022-09-03T14:54:37.983Z,62.10
2022-09-03T14:58:02.626Z,62.00
2022-09-03T15:01:16.700Z,62.10
2022-09-03T15:04:53.300Z,62.00
2022-09-03T15:08:05.457Z,62.10
2022-09-03T15:11:20.224Z,62.10
2022-09-03T15:14:33.260Z,62.10
2022-09-03T15:17:52.531Z,62.10
2022-09-03T15:21:15.815Z,62.10
2022-09-03T15:24:30.982Z,62.10
2022-09-03T15:27:49.949Z,62.10
2022-09-03T15:31:07.883Z,62.00
2022-09-03T15:34:20.129Z,62.00
2022-09-03T15:37:32.229Z,62.00
2022-09-03T15:40:44.999Z,62.10
2022-09-03T15:43:54.540Z,62.10
2022-09-03T15:47:14.446Z,62.00
2022-09-03T15:50:33.206Z,62.00
2022-09-03T15:53:49.258Z,62.00
2022-09-03T15:56:59.090Z,61.90
2022-09-03T16:00:11.533Z,61.90
2022-09-03T16:03:23.903Z,61.90
2022-09-03T16:06:38.313Z,61.90
2022-09-03T16:10:22.808Z,61.90
2022-09-03T16:13:47.869Z,61.90
2022-09-03T16:17:01.932Z,61.90
2022-09-03T16:20:20.765Z,61.90
2022-09-03T16:23:32.097Z,61.90
2022-09-03T16:26:51.113Z,61.90
2022-09-03T16:30:05.982Z,61.90
2022-09-03T16:33:23.373Z,61.90
2022-09-03T16:36:42.414Z,61.90
2022-09-03T16:39:58.589Z,61.90
2022-09-03T16:43:38.857Z,61.90
2022-09-03T16:46:49.598Z,61.90
2022-09-03T16:50:03.662Z,61.90
2022-09-03T16:53:19.810Z,61.90
2022-09-03T16:56:43.531Z,61.90
2022-09-03T17:00:11.214Z,61.90
2022-09-03T17:03:30.146Z,61.80
2022-09-03T17:06:59.918Z,61.80
2022-09-03T17:10:18.125Z,61.90
2022-09-03T17:14:02.963Z,61.80
2022-09-03T17:17:20.628Z,61.80
2022-09-03T17:20:49.034Z,61.80
2022-09-03T17:24:33.619Z,61.80
2022-09-03T17:28:05.753Z,61.80
2022-09-03T17:31:23.648Z,61.90
2022-09-03T17:34:52.826Z,61.90
2022-09-03T17:38:09.148Z,61.90
2022-09-03T17:41:25.356Z,61.90
2022-09-03T17:44:45.059Z,61.80
2022-09-03T17:48:15.579Z,61.90
2022-09-03T17:51:37.172Z,61.90
2022-09-03T17:54:48.235Z,61.90
2022-09-03T17:58:00.294Z,61.90
2022-09-03T18:01:17.912Z,61.90
2022-09-03T18:04:46.981Z,61.80
2022-09-03T18:08:06.024Z,61.80
2022-09-03T18:11:14.704Z,61.90
2022-09-03T18:14:29.431Z,61.90
2022-09-03T18:17:41.060Z,61.90
2022-09-03T18:21:23.231Z,61.90
2022-09-03T18:25:01.037Z,61.90
2022-09-03T18:28:26.263Z,61.90
2022-09-03T18:31:47.661Z,62.00
2022-09-03T18:35:11.032Z,62.10
2022-09-03T18:38:33.361Z,62.10
2022-09-03T18:42:21.792Z,62.10
2022-09-03T18:46:38.567Z,62.00
2022-09-03T18:49:46.420Z,62.00
2022-09-03T18:53:14.992Z,62.00
2022-09-03T18:56:49.794Z,61.90
2022-09-03T19:00:28.846Z,61.90
2022-09-03T19:04:08.347Z,61.90
2022-09-03T19:07:35.718Z,61.80
2022-09-03T19:11:08.256Z,61.80
2022-09-03T19:14:41.209Z,61.80
2022-09-03T19:18:24.481Z,61.90
2022-09-03T19:21:53.042Z,62.00
2022-09-03T19:25:22.952Z,62.30
2022-09-03T19:28:48.417Z,62.40
2022-09-03T19:32:20.404Z,62.50
2022-09-03T19:35:47.967Z,62.50
2022-09-03T19:39:26.384Z,62.40
2022-09-03T19:42:59.268Z,62.60
2022-09-03T19:46:58.363Z,62.60
2022-09-03T19:50:31.548Z,62.50
2022-09-03T19:54:01.545Z,62.40
2022-09-03T19:57:24.430Z,62.40
2022-09-03T20:00:48.503Z,62.40
2022-09-03T20:04:10.821Z,62.40
2022-09-03T20:07:39.983Z,62.40
2022-09-03T20:10:51.671Z,62.40
2022-09-03T20:14:16.582Z,62.40
2022-09-03T20:17:32.252Z,62.30
2022-09-03T20:20:45.711Z,62.20
2022-09-03T20:24:00.394Z,62.30
2022-09-03T20:27:21.237Z,62.20
2022-09-03T20:34:19.885Z,62.30
2022-09-03T20:37:32.089Z,62.20
2022-09-03T20:40:49.695Z,62.20
2022-09-03T20:44:20.935Z,62.20
2022-09-03T20:48:01.541Z,62.10
2022-09-03T20:51:13.524Z,62.10
2022-09-03T20:57:51.981Z,62.10
2022-09-03T21:01:06.689Z,62.10
2022-09-03T21:07:40.148Z,61.90
2022-09-03T21:10:55.782Z,62.00
2022-09-03T21:14:15.008Z,61.80
2022-09-03T21:17:40.033Z,61.90
2022-09-03T21:20:53.309Z,62.00
2022-09-03T21:24:08.087Z,62.00
2022-09-03T21:27:21.067Z,61.90
2022-09-03T21:30:29.362Z,61.90
2022-09-03T21:33:42.616Z,62.00
2022-09-03T21:36:50.833Z,61.90
2022-09-03T21:40:00.279Z,62.10
2022-09-03T21:43:14.583Z,62.10
2022-09-03T21:46:27.476Z,62.10
2022-09-03T21:49:43.101Z,62.10
2022-09-03T21:52:55.349Z,62.10
2022-09-03T21:56:22.339Z,62.10
2022-09-03T22:00:00.822Z,62.20
2022-09-03T22:03:12.650Z,62.20
2022-09-03T22:06:25.965Z,62.20
2022-09-03T22:09:41.372Z,62.20
2022-09-03T22:12:59.721Z,62.30
2022-09-03T22:16:13.695Z,62.30
2022-09-03T22:19:21.443Z,62.30
2022-09-03T22:22:41.011Z,62.30
2022-09-03T22:26:01.590Z,62.30
2022-09-03T22:29:17.126Z,62.30
2022-09-03T22:32:36.779Z,62.40
2022-09-03T22:35:53.033Z,62.50
2022-09-03T22:39:15.034Z,62.40
2022-09-03T22:42:53.741Z,62.40
2022-09-03T22:46:13.483Z,62.40
2022-09-03T22:49:28.415Z,62.40
2022-09-03T22:52:42.044Z,62.40
2022-09-03T22:56:01.053Z,62.50
2022-09-03T22:59:10.859Z,62.40
2022-09-03T23:02:24.447Z,62.40
2022-09-03T23:05:38.710Z,62.40
2022-09-03T23:08:55.424Z,62.40
2022-09-03T23:12:11.495Z,62.40
2022-09-03T23:15:22.586Z,62.30
2022-09-03T23:18:33.080Z,62.30
2022-09-03T23:21:44.011Z,62.20
2022-09-03T23:24:56.864Z,62.20
2022-09-03T23:28:11.991Z,62.10
2022-09-03T23:31:24.138Z,62.10
2022-09-03T23:34:31.584Z,62.10
2022-09-03T23:37:55.530Z,62.10
2022-09-03T23:41:03.729Z,62.00
2022-09-03T23:44:33.412Z,62.00
2022-09-03T23:47:45.766Z,62.00
2022-09-03T23:51:06.468Z,62.00
2022-09-03T23:54:23.086Z,62.00
2022-09-03T23:57:40.696Z,62.00
